sensor_id;sensor_type;location;lat;lon;timestamp;P1;durP1;ratioP1;P2;durP2;ratioP2
20988;SDS011;10653;47.052;15.410;2022-09-09T00:00:17;5.70;;;2.07;;
20988;SDS011;10653;47.052;15.410;2022-09-09T00:02:45;3.03;;;1.30;;
20988;SDS011;10653;47.052;15.410;2022-09-09T00:07:52;4.63;;;2.07;;
20988;SDS011;10653;47.052;15.410;2022-09-09T00:10:23;2.30;;;1.03;;
20988;SDS011;10653;47.052;15.410;2022-09-09T00:15:25;1.33;;;1.23;;
20988;SDS011;10653;47.052;15.410;2022-09-09T00:17:55;2.63;;;1.03;;
20988;SDS011;10653;47.052;15.410;2022-09-09T00:20:28;1.90;;;1.30;;
20988;SDS011;10653;47.052;15.410;2022-09-09T00:23:12;1.63;;;0.93;;
20988;SDS011;10653;47.052;15.410;2022-09-09T00:28:16;3.27;;;0.87;;
20988;SDS011;10653;47.052;15.410;2022-09-09T00:30:43;3.37;;;1.40;;
20988;SDS011;10653;47.052;15.410;2022-09-09T00:33:13;2.30;;;1.20;;
20988;SDS011;10653;47.052;15.410;2022-09-09T00:35:58;2.60;;;1.10;;
20988;SDS011;10653;47.052;15.410;2022-09-09T00:38:34;4.40;;;1.10;;
20988;SDS011;10653;47.052;15.410;2022-09-09T00:43:31;3.73;;;1.00;;
20988;SDS011;10653;47.052;15.410;2022-09-09T00:48:30;2.87;;;1.50;;
20988;SDS011;10653;47.052;15.410;2022-09-09T00:51:02;1.60;;;1.07;;
20988;SDS011;10653;47.052;15.410;2022-09-09T00:53:36;1.00;;;0.73;;
20988;SDS011;10653;47.052;15.410;2022-09-09T00:56:14;2.23;;;1.20;;
20988;SDS011;10653;47.052;15.410;2022-09-09T00:58:46;1.83;;;0.87;;
20988;SDS011;10653;47.052;15.410;2022-09-09T01:01:15;1.20;;;0.80;;
20988;SDS011;10653;47.052;15.410;2022-09-09T01:03:49;2.20;;;0.90;;
20988;SDS011;10653;47.052;15.410;2022-09-09T01:08:52;2.40;;;1.40;;
20988;SDS011;10653;47.052;15.410;2022-09-09T01:11:26;1.63;;;1.10;;
20988;SDS011;10653;47.052;15.410;2022-09-09T01:16:38;1.90;;;0.80;;
20988;SDS011;10653;47.052;15.410;2022-09-09T01:19:07;1.50;;;1.00;;
20988;SDS011;10653;47.052;15.410;2022-09-09T01:21:43;1.57;;;1.00;;
20988;SDS011;10653;47.052;15.410;2022-09-09T01:26:56;2.10;;;1.30;;
20988;SDS011;10653;47.052;15.410;2022-09-09T01:29:24;3.33;;;1.10;;
20988;SDS011;10653;47.052;15.410;2022-09-09T01:32:00;1.63;;;0.80;;
20988;SDS011;10653;47.052;15.410;2022-09-09T01:34:28;1.97;;;0.87;;
20988;SDS011;10653;47.052;15.410;2022-09-09T01:39:26;6.20;;;1.30;;
20988;SDS011;10653;47.052;15.410;2022-09-09T01:41:53;1.00;;;0.90;;
20988;SDS011;10653;47.052;15.410;2022-09-09T01:44:19;1.47;;;1.00;;
20988;SDS011;10653;47.052;15.410;2022-09-09T01:46:45;5.30;;;1.20;;
20988;SDS011;10653;47.052;15.410;2022-09-09T01:49:11;2.00;;;1.07;;
20988;SDS011;10653;47.052;15.410;2022-09-09T01:51:38;1.70;;;1.10;;
20988;SDS011;10653;47.052;15.410;2022-09-09T01:54:04;1.30;;;1.20;;
20988;SDS011;10653;47.052;15.410;2022-09-09T02:04:59;4.87;;;1.20;;
20988;SDS011;10653;47.052;15.410;2022-09-09T02:06:58;5.13;;;2.00;;
20988;SDS011;10653;47.052;15.410;2022-09-09T02:09:25;4.07;;;1.20;;
20988;SDS011;10653;47.052;15.410;2022-09-09T02:11:54;2.40;;;1.40;;
20988;SDS011;10653;47.052;15.410;2022-09-09T02:14:23;2.10;;;1.40;;
20988;SDS011;10653;47.052;15.410;2022-09-09T02:16:52;2.40;;;1.67;;
20988;SDS011;10653;47.052;15.410;2022-09-09T02:19:22;1.80;;;1.27;;
20988;SDS011;10653;47.052;15.410;2022-09-09T02:21:52;3.60;;;1.50;;
20988;SDS011;10653;47.052;15.410;2022-09-09T02:24:18;2.37;;;1.73;;
20988;SDS011;10653;47.052;15.410;2022-09-09T02:26:45;1.70;;;1.37;;
20988;SDS011;10653;47.052;15.410;2022-09-09T02:29:15;2.10;;;1.10;;
20988;SDS011;10653;47.052;15.410;2022-09-09T02:31:43;1.83;;;1.20;;
20988;SDS011;10653;47.052;15.410;2022-09-09T02:34:10;1.73;;;1.00;;
20988;SDS011;10653;47.052;15.410;2022-09-09T02:36:37;3.47;;;1.33;;
20988;SDS011;10653;47.052;15.410;2022-09-09T02:39:05;1.17;;;1.03;;
20988;SDS011;10653;47.052;15.410;2022-09-09T02:41:33;2.70;;;1.17;;
20988;SDS011;10653;47.052;15.410;2022-09-09T02:44:00;5.17;;;1.73;;
20988;SDS011;10653;47.052;15.410;2022-09-09T02:46:31;3.10;;;1.50;;
20988;SDS011;10653;47.052;15.410;2022-09-09T02:49:06;2.00;;;1.40;;
20988;SDS011;10653;47.052;15.410;2022-09-09T02:52:08;3.80;;;1.30;;
20988;SDS011;10653;47.052;15.410;2022-09-09T02:56:56;3.00;;;1.17;;
20988;SDS011;10653;47.052;15.410;2022-09-09T02:59:26;3.43;;;1.70;;
20988;SDS011;10653;47.052;15.410;2022-09-09T03:01:52;1.53;;;1.23;;
20988;SDS011;10653;47.052;15.410;2022-09-09T03:04:18;2.97;;;1.40;;
20988;SDS011;10653;47.052;15.410;2022-09-09T03:06:45;1.77;;;1.07;;
20988;SDS011;10653;47.052;15.410;2022-09-09T03:09:11;3.27;;;1.40;;
20988;SDS011;10653;47.052;15.410;2022-09-09T03:11:37;2.60;;;1.40;;
20988;SDS011;10653;47.052;15.410;2022-09-09T03:14:03;2.03;;;1.20;;
20988;SDS011;10653;47.052;15.410;2022-09-09T03:16:29;2.60;;;1.17;;
20988;SDS011;10653;47.052;15.410;2022-09-09T03:18:55;2.33;;;1.10;;
20988;SDS011;10653;47.052;15.410;2022-09-09T03:21:21;3.67;;;1.17;;
20988;SDS011;10653;47.052;15.410;2022-09-09T03:23:47;2.50;;;1.50;;
20988;SDS011;10653;47.052;15.410;2022-09-09T03:26:13;3.13;;;1.53;;
20988;SDS011;10653;47.052;15.410;2022-09-09T03:28:40;3.40;;;1.80;;
20988;SDS011;10653;47.052;15.410;2022-09-09T03:31:06;3.47;;;2.27;;
20988;SDS011;10653;47.052;15.410;2022-09-09T03:33:35;2.70;;;1.90;;
20988;SDS011;10653;47.052;15.410;2022-09-09T03:36:02;3.33;;;2.00;;
20988;SDS011;10653;47.052;15.410;2022-09-09T03:38:28;3.40;;;1.87;;
20988;SDS011;10653;47.052;15.410;2022-09-09T03:40:54;1.97;;;1.77;;
20988;SDS011;10653;47.052;15.410;2022-09-09T03:43:22;4.50;;;1.80;;
20988;SDS011;10653;47.052;15.410;2022-09-09T03:45:48;2.23;;;2.03;;
20988;SDS011;10653;47.052;15.410;2022-09-09T03:48:15;3.40;;;1.53;;
20988;SDS011;10653;47.052;15.410;2022-09-09T03:50:48;4.93;;;1.80;;
20988;SDS011;10653;47.052;15.410;2022-09-09T03:53:14;3.97;;;1.80;;
20988;SDS011;10653;47.052;15.410;2022-09-09T03:55:47;2.23;;;1.53;;
20988;SDS011;10653;47.052;15.410;2022-09-09T03:58:13;3.57;;;2.00;;
20988;SDS011;10653;47.052;15.410;2022-09-09T04:00:40;2.27;;;1.47;;
20988;SDS011;10653;47.052;15.410;2022-09-09T04:03:08;2.47;;;2.00;;
20988;SDS011;10653;47.052;15.410;2022-09-09T04:05:34;4.00;;;2.73;;
20988;SDS011;10653;47.052;15.410;2022-09-09T04:08:04;4.47;;;1.90;;
20988;SDS011;10653;47.052;15.410;2022-09-09T04:10:30;3.83;;;1.80;;
20988;SDS011;10653;47.052;15.410;2022-09-09T04:12:56;3.13;;;2.03;;
20988;SDS011;10653;47.052;15.410;2022-09-09T04:15:22;3.90;;;1.77;;
20988;SDS011;10653;47.052;15.410;2022-09-09T04:17:48;3.60;;;1.90;;
20988;SDS011;10653;47.052;15.410;2022-09-09T04:20:14;6.47;;;2.60;;
20988;SDS011;10653;47.052;15.410;2022-09-09T04:22:40;3.03;;;2.40;;
20988;SDS011;10653;47.052;15.410;2022-09-09T04:25:06;6.00;;;2.30;;
20988;SDS011;10653;47.052;15.410;2022-09-09T04:27:33;4.40;;;2.57;;
20988;SDS011;10653;47.052;15.410;2022-09-09T04:29:59;6.00;;;2.70;;
20988;SDS011;10653;47.052;15.410;2022-09-09T04:32:25;4.83;;;1.90;;
20988;SDS011;10653;47.052;15.410;2022-09-09T04:34:53;4.00;;;1.90;;
20988;SDS011;10653;47.052;15.410;2022-09-09T04:37:19;2.03;;;1.80;;
20988;SDS011;10653;47.052;15.410;2022-09-09T04:39:45;4.30;;;2.00;;
20988;SDS011;10653;47.052;15.410;2022-09-09T04:42:11;6.53;;;2.27;;
20988;SDS011;10653;47.052;15.410;2022-09-09T04:44:37;4.37;;;2.27;;
20988;SDS011;10653;47.052;15.410;2022-09-09T04:47:04;5.00;;;2.43;;
20988;SDS011;10653;47.052;15.410;2022-09-09T04:49:30;4.43;;;2.10;;
20988;SDS011;10653;47.052;15.410;2022-09-09T04:51:56;3.13;;;2.27;;
20988;SDS011;10653;47.052;15.410;2022-09-09T04:54:22;3.13;;;2.33;;
20988;SDS011;10653;47.052;15.410;2022-09-09T04:56:50;4.10;;;2.23;;
20988;SDS011;10653;47.052;15.410;2022-09-09T04:59:16;4.20;;;2.40;;
20988;SDS011;10653;47.052;15.410;2022-09-09T05:01:42;3.90;;;2.67;;
20988;SDS011;10653;47.052;15.410;2022-09-09T05:04:08;8.13;;;3.17;;
20988;SDS011;10653;47.052;15.410;2022-09-09T05:06:34;6.90;;;2.77;;
20988;SDS011;10653;47.052;15.410;2022-09-09T05:09:01;2.90;;;2.40;;
20988;SDS011;10653;47.052;15.410;2022-09-09T05:11:28;3.67;;;2.33;;
20988;SDS011;10653;47.052;15.410;2022-09-09T05:13:55;4.43;;;2.03;;
20988;SDS011;10653;47.052;15.410;2022-09-09T05:16:22;3.53;;;2.33;;
20988;SDS011;10653;47.052;15.410;2022-09-09T05:18:48;3.13;;;2.67;;
20988;SDS011;10653;47.052;15.410;2022-09-09T05:21:15;6.20;;;3.00;;
20988;SDS011;10653;47.052;15.410;2022-09-09T05:23:41;4.67;;;2.50;;
20988;SDS011;10653;47.052;15.410;2022-09-09T05:26:09;3.30;;;2.53;;
20988;SDS011;10653;47.052;15.410;2022-09-09T05:28:37;3.37;;;2.43;;
20988;SDS011;10653;47.052;15.410;2022-09-09T05:31:04;2.90;;;2.37;;
20988;SDS011;10653;47.052;15.410;2022-09-09T05:33:31;4.87;;;2.43;;
20988;SDS011;10653;47.052;15.410;2022-09-09T05:36:02;5.23;;;3.17;;
20988;SDS011;10653;47.052;15.410;2022-09-09T05:38:29;5.47;;;2.70;;
20988;SDS011;10653;47.052;15.410;2022-09-09T05:40:56;7.37;;;3.20;;
20988;SDS011;10653;47.052;15.410;2022-09-09T05:43:22;3.73;;;2.60;;
20988;SDS011;10653;47.052;15.410;2022-09-09T05:45:58;3.10;;;2.43;;
20988;SDS011;10653;47.052;15.410;2022-09-09T05:48:27;4.03;;;3.17;;
20988;SDS011;10653;47.052;15.410;2022-09-09T05:50:53;3.03;;;2.37;;
20988;SDS011;10653;47.052;15.410;2022-09-09T05:53:19;2.63;;;2.43;;
20988;SDS011;10653;47.052;15.410;2022-09-09T05:55:45;6.03;;;2.40;;
20988;SDS011;10653;47.052;15.410;2022-09-09T05:58:12;6.53;;;3.50;;
20988;SDS011;10653;47.052;15.410;2022-09-09T06:00:39;4.50;;;2.57;;
20988;SDS011;10653;47.052;15.410;2022-09-09T06:03:05;4.10;;;2.97;;
20988;SDS011;10653;47.052;15.410;2022-09-09T06:05:31;4.17;;;3.00;;
20988;SDS011;10653;47.052;15.410;2022-09-09T06:07:59;4.03;;;3.07;;
20988;SDS011;10653;47.052;15.410;2022-09-09T06:10:25;4.40;;;2.43;;
20988;SDS011;10653;47.052;15.410;2022-09-09T06:12:52;2.60;;;2.27;;
20988;SDS011;10653;47.052;15.410;2022-09-09T06:15:18;9.70;;;2.77;;
20988;SDS011;10653;47.052;15.410;2022-09-09T06:17:44;4.30;;;2.90;;
20988;SDS011;10653;47.052;15.410;2022-09-09T06:20:10;2.90;;;2.60;;
20988;SDS011;10653;47.052;15.410;2022-09-09T06:22:39;6.07;;;3.20;;
20988;SDS011;10653;47.052;15.410;2022-09-09T06:25:05;3.70;;;3.27;;
20988;SDS011;10653;47.052;15.410;2022-09-09T06:27:32;3.53;;;2.43;;
20988;SDS011;10653;47.052;15.410;2022-09-09T06:29:58;4.47;;;2.93;;
20988;SDS011;10653;47.052;15.410;2022-09-09T06:32:24;5.87;;;3.37;;
20988;SDS011;10653;47.052;15.410;2022-09-09T06:34:51;7.23;;;3.43;;
20988;SDS011;10653;47.052;15.410;2022-09-09T06:37:17;3.77;;;3.43;;
20988;SDS011;10653;47.052;15.410;2022-09-09T06:39:43;10.97;;;5.77;;
20988;SDS011;10653;47.052;15.410;2022-09-09T06:42:09;7.23;;;3.17;;
20988;SDS011;10653;47.052;15.410;2022-09-09T06:44:35;3.80;;;3.40;;
20988;SDS011;10653;47.052;15.410;2022-09-09T06:47:01;14.50;;;4.20;;
20988;SDS011;10653;47.052;15.410;2022-09-09T06:49:28;14.20;;;4.80;;
20988;SDS011;10653;47.052;15.410;2022-09-09T06:51:54;7.37;;;4.30;;
20988;SDS011;10653;47.052;15.410;2022-09-09T06:54:20;5.73;;;4.37;;
20988;SDS011;10653;47.052;15.410;2022-09-09T06:56:47;7.57;;;3.67;;
20988;SDS011;10653;47.052;15.410;2022-09-09T06:59:14;4.53;;;3.70;;
20988;SDS011;10653;47.052;15.410;2022-09-09T07:01:41;7.97;;;3.97;;
20988;SDS011;10653;47.052;15.410;2022-09-09T07:04:16;8.20;;;3.90;;
20988;SDS011;10653;47.052;15.410;2022-09-09T07:06:43;7.00;;;4.23;;
20988;SDS011;10653;47.052;15.410;2022-09-09T07:09:11;6.77;;;4.70;;
20988;SDS011;10653;47.052;15.410;2022-09-09T07:11:38;7.63;;;4.13;;
20988;SDS011;10653;47.052;15.410;2022-09-09T07:14:06;5.40;;;3.90;;
20988;SDS011;10653;47.052;15.410;2022-09-09T07:16:32;6.20;;;4.20;;
20988;SDS011;10653;47.052;15.410;2022-09-09T07:20:01;6.20;;;3.70;;
20988;SDS011;10653;47.052;15.410;2022-09-09T07:22:28;5.10;;;3.77;;
20988;SDS011;10653;47.052;15.410;2022-09-09T07:24:54;4.73;;;3.80;;
20988;SDS011;10653;47.052;15.410;2022-09-09T07:27:20;4.10;;;3.53;;
20988;SDS011;10653;47.052;15.410;2022-09-09T07:29:46;8.43;;;3.57;;
20988;SDS011;10653;47.052;15.410;2022-09-09T07:32:13;4.60;;;3.70;;
20988;SDS011;10653;47.052;15.410;2022-09-09T07:34:40;6.37;;;3.80;;
20988;SDS011;10653;47.052;15.410;2022-09-09T07:37:06;4.53;;;3.70;;
20988;SDS011;10653;47.052;15.410;2022-09-09T07:39:32;7.20;;;3.93;;
20988;SDS011;10653;47.052;15.410;2022-09-09T07:41:58;4.87;;;3.73;;
20988;SDS011;10653;47.052;15.410;2022-09-09T07:44:24;6.00;;;3.50;;
20988;SDS011;10653;47.052;15.410;2022-09-09T07:46:51;4.60;;;3.73;;
20988;SDS011;10653;47.052;15.410;2022-09-09T07:49:17;8.00;;;3.33;;
20988;SDS011;10653;47.052;15.410;2022-09-09T07:51:44;6.90;;;3.00;;
20988;SDS011;10653;47.052;15.410;2022-09-09T07:54:11;9.03;;;4.03;;
20988;SDS011;10653;47.052;15.410;2022-09-09T07:56:38;7.20;;;3.60;;
20988;SDS011;10653;47.052;15.410;2022-09-09T07:59:05;4.73;;;3.10;;
20988;SDS011;10653;47.052;15.410;2022-09-09T08:01:35;5.97;;;3.23;;
20988;SDS011;10653;47.052;15.410;2022-09-09T08:04:04;4.53;;;3.33;;
20988;SDS011;10653;47.052;15.410;2022-09-09T08:06:33;5.87;;;3.23;;
20988;SDS011;10653;47.052;15.410;2022-09-09T08:09:00;4.83;;;3.33;;
20988;SDS011;10653;47.052;15.410;2022-09-09T08:11:27;6.70;;;4.23;;
20988;SDS011;10653;47.052;15.410;2022-09-09T08:13:54;8.63;;;3.20;;
20988;SDS011;10653;47.052;15.410;2022-09-09T08:16:21;3.97;;;3.50;;
20988;SDS011;10653;47.052;15.410;2022-09-09T08:18:50;6.97;;;2.97;;
20988;SDS011;10653;47.052;15.410;2022-09-09T08:21:24;5.60;;;3.17;;
20988;SDS011;10653;47.052;15.410;2022-09-09T08:23:52;5.27;;;3.47;;
20988;SDS011;10653;47.052;15.410;2022-09-09T08:26:19;5.97;;;3.80;;
20988;SDS011;10653;47.052;15.410;2022-09-09T08:28:49;3.20;;;2.70;;
20988;SDS011;10653;47.052;15.410;2022-09-09T08:31:19;3.80;;;3.23;;
20988;SDS011;10653;47.052;15.410;2022-09-09T08:33:46;5.90;;;3.70;;
20988;SDS011;10653;47.052;15.410;2022-09-09T08:36:13;6.40;;;3.90;;
20988;SDS011;10653;47.052;15.410;2022-09-09T08:38:40;5.83;;;4.30;;
20988;SDS011;10653;47.052;15.410;2022-09-09T08:43:51;5.33;;;4.00;;
20988;SDS011;10653;47.052;15.410;2022-09-09T08:46:39;5.53;;;3.80;;
20988;SDS011;10653;47.052;15.410;2022-09-09T08:51:36;5.43;;;4.27;;
20988;SDS011;10653;47.052;15.410;2022-09-09T08:54:02;7.60;;;3.83;;
20988;SDS011;10653;47.052;15.410;2022-09-09T08:56:30;4.30;;;3.90;;
20988;SDS011;10653;47.052;15.410;2022-09-09T08:58:56;7.40;;;4.03;;
20988;SDS011;10653;47.052;15.410;2022-09-09T09:03:53;7.10;;;5.27;;
20988;SDS011;10653;47.052;15.410;2022-09-09T09:12:00;4.80;;;4.33;;
20988;SDS011;10653;47.052;15.410;2022-09-09T09:14:30;7.37;;;4.20;;
20988;SDS011;10653;47.052;15.410;2022-09-09T09:19:32;4.80;;;3.90;;
20988;SDS011;10653;47.052;15.410;2022-09-09T09:26:51;4.47;;;2.90;;
20988;SDS011;10653;47.052;15.410;2022-09-09T09:29:18;5.30;;;3.23;;
20988;SDS011;10653;47.052;15.410;2022-09-09T09:31:45;3.90;;;2.63;;
20988;SDS011;10653;47.052;15.410;2022-09-09T09:34:12;3.33;;;2.50;;
20988;SDS011;10653;47.052;15.410;2022-09-09T09:36:40;4.93;;;2.73;;
20988;SDS011;10653;47.052;15.410;2022-09-09T09:39:07;3.27;;;2.57;;
20988;SDS011;10653;47.052;15.410;2022-09-09T09:44:00;3.27;;;2.80;;
20988;SDS011;10653;47.052;15.410;2022-09-09T09:46:27;5.10;;;3.00;;
20988;SDS011;10653;47.052;15.410;2022-09-09T09:49:00;5.50;;;2.77;;
20988;SDS011;10653;47.052;15.410;2022-09-09T09:51:26;7.63;;;2.50;;
20988;SDS011;10653;47.052;15.410;2022-09-09T09:53:53;2.90;;;2.10;;
20988;SDS011;10653;47.052;15.410;2022-09-09T09:56:27;3.70;;;2.13;;
20988;SDS011;10653;47.052;15.410;2022-09-09T09:58:54;6.63;;;3.00;;
20988;SDS011;10653;47.052;15.410;2022-09-09T10:01:22;5.60;;;2.20;;
20988;SDS011;10653;47.052;15.410;2022-09-09T10:03:53;3.27;;;2.57;;
20988;SDS011;10653;47.052;15.410;2022-09-09T10:06:33;6.40;;;2.70;;
20988;SDS011;10653;47.052;15.410;2022-09-09T10:08:59;4.87;;;2.53;;
20988;SDS011;10653;47.052;15.410;2022-09-09T10:11:44;3.87;;;2.83;;
20988;SDS011;10653;47.052;15.410;2022-09-09T10:14:21;3.87;;;2.40;;
20988;SDS011;10653;47.052;15.410;2022-09-09T10:19:18;4.97;;;2.37;;
20988;SDS011;10653;47.052;15.410;2022-09-09T10:29:27;5.37;;;2.07;;
20988;SDS011;10653;47.052;15.410;2022-09-09T10:31:59;2.60;;;2.30;;
20988;SDS011;10653;47.052;15.410;2022-09-09T10:39:48;2.50;;;2.07;;
20988;SDS011;10653;47.052;15.410;2022-09-09T10:42:17;3.90;;;2.27;;
20988;SDS011;10653;47.052;15.410;2022-09-09T10:55:18;2.20;;;1.90;;
20988;SDS011;10653;47.052;15.410;2022-09-09T10:57:46;1.90;;;1.67;;
20988;SDS011;10653;47.052;15.410;2022-09-09T11:02:39;2.50;;;1.40;;
20988;SDS011;10653;47.052;15.410;2022-09-09T11:05:14;2.23;;;1.50;;
20988;SDS011;10653;47.052;15.410;2022-09-09T11:07:47;3.80;;;1.50;;
20988;SDS011;10653;47.052;15.410;2022-09-09T11:10:24;2.33;;;1.40;;
20988;SDS011;10653;47.052;15.410;2022-09-09T11:12:56;1.43;;;1.20;;
20988;SDS011;10653;47.052;15.410;2022-09-09T11:15:45;1.27;;;1.17;;
20988;SDS011;10653;47.052;15.410;2022-09-09T11:18:18;2.60;;;1.77;;
20988;SDS011;10653;47.052;15.410;2022-09-09T11:20:45;1.47;;;1.37;;
20988;SDS011;10653;47.052;15.410;2022-09-09T11:23:22;1.37;;;1.10;;
20988;SDS011;10653;47.052;15.410;2022-09-09T11:25:55;1.60;;;1.50;;
20988;SDS011;10653;47.052;15.410;2022-09-09T11:30:59;1.93;;;1.70;;
20988;SDS011;10653;47.052;15.410;2022-09-09T11:38:45;1.50;;;1.10;;
20988;SDS011;10653;47.052;15.410;2022-09-09T11:41:12;1.87;;;1.00;;
20988;SDS011;10653;47.052;15.410;2022-09-09T11:43:40;1.40;;;1.17;;
20988;SDS011;10653;47.052;15.410;2022-09-09T11:46:07;2.67;;;1.23;;
20988;SDS011;10653;47.052;15.410;2022-09-09T11:48:35;3.57;;;1.00;;
20988;SDS011;10653;47.052;15.410;2022-09-09T11:56:23;4.67;;;1.07;;
20988;SDS011;10653;47.052;15.410;2022-09-09T11:58:54;1.00;;;0.90;;
20988;SDS011;10653;47.052;15.410;2022-09-09T12:09:25;1.10;;;0.97;;
20988;SDS011;10653;47.052;15.410;2022-09-09T12:11:52;2.00;;;1.40;;
20988;SDS011;10653;47.052;15.410;2022-09-09T12:16:47;3.73;;;1.20;;
20988;SDS011;10653;47.052;15.410;2022-09-09T12:19:21;1.43;;;1.13;;
20988;SDS011;10653;47.052;15.410;2022-09-09T12:27:09;1.50;;;1.37;;
20988;SDS011;10653;47.052;15.410;2022-09-09T12:29:49;3.23;;;1.43;;
20988;SDS011;10653;47.052;15.410;2022-09-09T12:32:23;1.60;;;1.23;;
20988;SDS011;10653;47.052;15.410;2022-09-09T12:34:54;1.27;;;0.90;;
20988;SDS011;10653;47.052;15.410;2022-09-09T12:39:55;1.00;;;0.80;;
20988;SDS011;10653;47.052;15.410;2022-09-09T12:42:22;1.37;;;1.00;;
20988;SDS011;10653;47.052;15.410;2022-09-09T12:47:17;1.97;;;1.17;;
20988;SDS011;10653;47.052;15.410;2022-09-09T12:49:44;1.20;;;1.00;;
20988;SDS011;10653;47.052;15.410;2022-09-09T12:52:19;1.60;;;1.40;;
20988;SDS011;10653;47.052;15.410;2022-09-09T12:54:49;1.50;;;1.40;;
20988;SDS011;10653;47.052;15.410;2022-09-09T12:57:18;1.50;;;1.30;;
20988;SDS011;10653;47.052;15.410;2022-09-09T12:59:44;2.23;;;1.57;;
20988;SDS011;10653;47.052;15.410;2022-09-09T13:02:18;1.23;;;1.13;;
20988;SDS011;10653;47.052;15.410;2022-09-09T13:04:45;2.47;;;1.57;;
20988;SDS011;10653;47.052;15.410;2022-09-09T13:07:12;1.97;;;1.80;;
20988;SDS011;10653;47.052;15.410;2022-09-09T13:09:38;2.73;;;1.37;;
20988;SDS011;10653;47.052;15.410;2022-09-09T13:12:05;1.87;;;1.20;;
20988;SDS011;10653;47.052;15.410;2022-09-09T13:14:33;2.60;;;1.33;;
20988;SDS011;10653;47.052;15.410;2022-09-09T13:17:03;1.73;;;1.50;;
20988;SDS011;10653;47.052;15.410;2022-09-09T13:19:30;2.80;;;1.67;;
20988;SDS011;10653;47.052;15.410;2022-09-09T13:21:58;2.07;;;1.20;;
20988;SDS011;10653;47.052;15.410;2022-09-09T13:24:33;2.00;;;1.37;;
20988;SDS011;10653;47.052;15.410;2022-09-09T13:27:01;2.70;;;1.67;;
20988;SDS011;10653;47.052;15.410;2022-09-09T13:29:27;2.60;;;1.77;;
20988;SDS011;10653;47.052;15.410;2022-09-09T13:31:54;1.60;;;1.40;;
20988;SDS011;10653;47.052;15.410;2022-09-09T13:34:31;1.23;;;1.10;;
20988;SDS011;10653;47.052;15.410;2022-09-09T13:37:01;2.23;;;1.50;;
20988;SDS011;10653;47.052;15.410;2022-09-09T13:39:28;1.90;;;1.60;;
20988;SDS011;10653;47.052;15.410;2022-09-09T13:41:54;1.80;;;1.60;;
20988;SDS011;10653;47.052;15.410;2022-09-09T13:44:35;1.77;;;1.50;;
20988;SDS011;10653;47.052;15.410;2022-09-09T13:49:34;2.93;;;1.30;;
20988;SDS011;10653;47.052;15.410;2022-09-09T13:52:04;5.80;;;1.87;;
20988;SDS011;10653;47.052;15.410;2022-09-09T13:54:32;1.63;;;1.33;;
20988;SDS011;10653;47.052;15.410;2022-09-09T13:56:58;2.07;;;1.57;;
20988;SDS011;10653;47.052;15.410;2022-09-09T13:59:26;3.43;;;1.73;;
20988;SDS011;10653;47.052;15.410;2022-09-09T14:01:52;1.87;;;1.20;;
20988;SDS011;10653;47.052;15.410;2022-09-09T14:04:18;2.30;;;1.50;;
20988;SDS011;10653;47.052;15.410;2022-09-09T14:06:47;2.53;;;1.47;;
20988;SDS011;10653;47.052;15.410;2022-09-09T14:09:14;4.57;;;1.90;;
20988;SDS011;10653;47.052;15.410;2022-09-09T14:11:41;2.20;;;1.83;;
20988;SDS011;10653;47.052;15.410;2022-09-09T14:14:07;2.60;;;1.60;;
20988;SDS011;10653;47.052;15.410;2022-09-09T14:16:34;3.37;;;1.77;;
20988;SDS011;10653;47.052;15.410;2022-09-09T14:19:00;2.80;;;1.80;;
20988;SDS011;10653;47.052;15.410;2022-09-09T14:21:27;3.30;;;1.60;;
20988;SDS011;10653;47.052;15.410;2022-09-09T14:23:53;2.70;;;2.10;;
20988;SDS011;10653;47.052;15.410;2022-09-09T14:26:20;1.93;;;1.50;;
20988;SDS011;10653;47.052;15.410;2022-09-09T14:28:46;1.93;;;1.80;;
20988;SDS011;10653;47.052;15.410;2022-09-09T14:31:13;2.40;;;1.73;;
20988;SDS011;10653;47.052;15.410;2022-09-09T14:33:39;2.60;;;2.10;;
20988;SDS011;10653;47.052;15.410;2022-09-09T14:36:05;2.40;;;1.83;;
20988;SDS011;10653;47.052;15.410;2022-09-09T14:38:32;3.10;;;1.90;;
20988;SDS011;10653;47.052;15.410;2022-09-09T14:40:59;1.90;;;1.63;;
20988;SDS011;10653;47.052;15.410;2022-09-09T14:43:28;2.80;;;1.93;;
20988;SDS011;10653;47.052;15.410;2022-09-09T14:45:55;2.20;;;1.70;;
20988;SDS011;10653;47.052;15.410;2022-09-09T14:48:21;2.70;;;1.60;;
20988;SDS011;10653;47.052;15.410;2022-09-09T14:50:47;2.03;;;1.80;;
20988;SDS011;10653;47.052;15.410;2022-09-09T14:53:15;4.63;;;2.20;;
20988;SDS011;10653;47.052;15.410;2022-09-09T14:55:42;3.03;;;1.97;;
20988;SDS011;10653;47.052;15.410;2022-09-09T14:58:08;3.37;;;2.23;;
20988;SDS011;10653;47.052;15.410;2022-09-09T15:00:34;2.90;;;2.43;;
20988;SDS011;10653;47.052;15.410;2022-09-09T15:03:01;3.77;;;2.73;;
20988;SDS011;10653;47.052;15.410;2022-09-09T15:05:27;4.90;;;2.60;;
20988;SDS011;10653;47.052;15.410;2022-09-09T15:07:53;1.93;;;1.60;;
20988;SDS011;10653;47.052;15.410;2022-09-09T15:10:19;3.83;;;2.00;;
20988;SDS011;10653;47.052;15.410;2022-09-09T15:12:46;2.47;;;1.80;;
20988;SDS011;10653;47.052;15.410;2022-09-09T15:15:12;4.10;;;2.33;;
20988;SDS011;10653;47.052;15.410;2022-09-09T15:17:38;6.53;;;2.10;;
20988;SDS011;10653;47.052;15.410;2022-09-09T15:20:04;1.60;;;1.50;;
20988;SDS011;10653;47.052;15.410;2022-09-09T15:22:33;3.60;;;1.83;;
20988;SDS011;10653;47.052;15.410;2022-09-09T15:25:01;3.43;;;1.73;;
20988;SDS011;10653;47.052;15.410;2022-09-09T15:27:27;2.50;;;1.80;;
20988;SDS011;10653;47.052;15.410;2022-09-09T15:29:56;3.00;;;1.70;;
20988;SDS011;10653;47.052;15.410;2022-09-09T15:32:23;4.00;;;2.10;;
20988;SDS011;10653;47.052;15.410;2022-09-09T15:34:49;2.70;;;1.77;;
20988;SDS011;10653;47.052;15.410;2022-09-09T15:37:16;2.73;;;1.77;;
20988;SDS011;10653;47.052;15.410;2022-09-09T15:39:42;2.40;;;2.20;;
20988;SDS011;10653;47.052;15.410;2022-09-09T15:42:09;2.43;;;1.83;;
20988;SDS011;10653;47.052;15.410;2022-09-09T15:44:42;2.50;;;1.80;;
20988;SDS011;10653;47.052;15.410;2022-09-09T15:47:10;2.33;;;1.80;;
20988;SDS011;10653;47.052;15.410;2022-09-09T15:49:37;2.77;;;1.90;;
20988;SDS011;10653;47.052;15.410;2022-09-09T15:52:03;1.97;;;1.77;;
20988;SDS011;10653;47.052;15.410;2022-09-09T15:54:33;3.07;;;1.80;;
20988;SDS011;10653;47.052;15.410;2022-09-09T15:57:00;1.50;;;1.40;;
20988;SDS011;10653;47.052;15.410;2022-09-09T15:59:27;2.17;;;1.53;;
20988;SDS011;10653;47.052;15.410;2022-09-09T16:01:54;2.73;;;2.07;;
20988;SDS011;10653;47.052;15.410;2022-09-09T16:04:20;2.63;;;1.90;;
20988;SDS011;10653;47.052;15.410;2022-09-09T16:06:54;4.20;;;1.63;;
20988;SDS011;10653;47.052;15.410;2022-09-09T16:09:20;1.60;;;1.40;;
20988;SDS011;10653;47.052;15.410;2022-09-09T16:11:47;2.37;;;1.17;;
20988;SDS011;10653;47.052;15.410;2022-09-09T16:14:13;1.60;;;1.50;;
20988;SDS011;10653;47.052;15.410;2022-09-09T16:16:42;1.83;;;1.20;;
20988;SDS011;10653;47.052;15.410;2022-09-09T16:19:09;2.53;;;1.30;;
20988;SDS011;10653;47.052;15.410;2022-09-09T16:21:38;2.10;;;1.80;;
20988;SDS011;10653;47.052;15.410;2022-09-09T16:24:05;1.70;;;1.23;;
20988;SDS011;10653;47.052;15.410;2022-09-09T16:26:32;5.70;;;1.50;;
20988;SDS011;10653;47.052;15.410;2022-09-09T16:28:58;4.23;;;1.60;;
20988;SDS011;10653;47.052;15.410;2022-09-09T16:31:25;1.90;;;1.30;;
20988;SDS011;10653;47.052;15.410;2022-09-09T16:33:52;4.27;;;1.40;;
20988;SDS011;10653;47.052;15.410;2022-09-09T16:36:22;2.33;;;1.50;;
20988;SDS011;10653;47.052;15.410;2022-09-09T16:38:51;2.33;;;1.63;;
20988;SDS011;10653;47.052;15.410;2022-09-09T16:41:19;4.03;;;2.07;;